Terminal Aerodrome Forecast
Issued by NWS

Home | Current Version | Previous Version | Text Only | Print | Product List | Glossary On
Versions: 1 2 3 4 5 6 7 8 9 10 11 12 13
532
FTUS42 TJSJ 230536
TAFJPS
TAF
TJPS 230536Z 2306/2406 05005KT P6SM FEW030
     FM231400 14012G18KT P6SM VCSH FEW030 SCT060
     FM232330 08007KT P6SM FEW040
      AMD NOT SKED 2312/2403=

USA.gov is the U.S. government's official web portal to all federal, state and local government web resources and services.